Time;durP1;ratioP1;P1;durP2;ratioP2;P2;SDS_P1;SDS_P2;PMS_P1;PMS_P2;Temp;Humidity;BMP_temperature;BMP_pressure;BME280_temperature;BME280_humidity;BME280_pressure;Samples;Min_cycle;Max_cycle;Signal;HPM_P1;HPM_P2
2023/01/09 00:00:12;;;;;;;0.95;0.80;;;20.60;52.00;;;;;;5051107;28;20453;-56
2023/01/09 00:02:39;;;;;;;0.70;0.70;;;20.50;51.90;;;;;;5049396;28;20041;-57
2023/01/09 00:05:06;;;;;;;0.93;0.77;;;20.60;52.00;;;;;;5048037;28;20059;-56
2023/01/09 00:07:33;;;;;;;0.65;0.63;;;20.50;51.90;;;;;;5032838;28;20048;-55
2023/01/09 00:09:58;;;;;;;2.35;0.80;;;20.50;51.90;;;;;;5056279;28;20079;-58
2023/01/09 00:12:24;;;;;;;0.60;0.60;;;20.50;51.90;;;;;;5049108;28;20068;-56
2023/01/09 00:14:50;;;;;;;1.80;0.80;;;20.50;51.90;;;;;;5049063;28;20480;-56
2023/01/09 00:17:15;;;;;;;1.15;0.65;;;20.50;51.80;;;;;;5048964;28;20126;-57
2023/01/09 00:19:41;;;;;;;1.05;0.77;;;20.50;51.80;;;;;;5082870;28;20094;-56
2023/01/09 00:22:08;;;;;;;1.23;0.77;;;20.50;51.80;;;;;;5067128;28;20052;-55
2023/01/09 00:24:35;;;;;;;0.77;0.75;;;20.50;51.80;;;;;;5049655;28;20074;-57
2023/01/09 00:27:01;;;;;;;0.60;0.50;;;20.50;51.80;;;;;;5049883;28;20060;-58
2023/01/09 00:29:26;;;;;;;0.95;0.70;;;20.50;51.70;;;;;;5051659;28;20138;-57
2023/01/09 00:31:52;;;;;;;0.80;0.70;;;20.50;51.70;;;;;;5049033;28;20365;-57
2023/01/09 00:34:18;;;;;;;0.47;0.47;;;20.50;51.70;;;;;;5050162;28;20044;-56
2023/01/09 00:36:43;;;;;;;0.98;0.60;;;20.40;51.70;;;;;;5049187;28;20044;-56
2023/01/09 00:39:09;;;;;;;0.75;0.50;;;20.40;51.70;;;;;;5081315;28;20055;-56
2023/01/09 00:41:41;;;;;;;0.70;0.60;;;20.40;51.80;;;;;;5079897;28;20040;-57
2023/01/09 00:44:13;;;;;;;1.08;0.60;;;20.40;51.80;;;;;;5050931;28;20488;-55
2023/01/09 00:46:45;;;;;;;0.63;0.63;;;20.40;51.80;;;;;;5051216;28;20049;-56
2023/01/09 00:49:12;;;;;;;0.65;0.65;;;20.40;51.80;;;;;;5049843;28;20045;-60
2023/01/09 00:51:39;;;;;;;0.57;0.40;;;20.40;51.70;;;;;;5047497;28;20688;-58
2023/01/09 00:54:05;;;;;;;1.15;0.40;;;20.40;51.70;;;;;;5050544;28;20052;-56
2023/01/09 00:56:33;;;;;;;1.58;0.60;;;20.40;51.70;;;;;;5048461;28;20072;-59
2023/01/09 00:58:59;;;;;;;1.20;0.60;;;20.40;51.70;;;;;;5049197;28;20080;-56
2023/01/09 01:01:25;;;;;;;0.70;0.70;;;20.40;51.70;;;;;;5048306;28;20127;-58
2023/01/09 01:03:50;;;;;;;1.55;0.70;;;20.40;51.70;;;;;;5049669;28;20076;-56
2023/01/09 01:09:01;;;;;;;0.60;0.60;;;20.40;51.70;;;;;;5048759;28;20055;-56
2023/01/09 01:11:26;;;;;;;0.77;0.52;;;20.40;51.70;;;;;;5050589;28;20063;-56
2023/01/09 01:13:52;;;;;;;1.25;0.50;;;20.40;51.70;;;;;;5048703;28;20044;-56
2023/01/09 01:16:18;;;;;;;1.10;0.63;;;20.30;51.70;;;;;;5053645;28;20052;-59
2023/01/09 01:18:44;;;;;;;0.80;0.43;;;20.30;51.60;;;;;;5052171;28;20086;-60
2023/01/09 01:21:12;;;;;;;1.60;0.60;;;20.30;51.60;;;;;;5051275;28;20047;-57
2023/01/09 01:23:38;;;;;;;1.00;0.63;;;20.30;51.60;;;;;;5050857;28;20080;-57
2023/01/09 01:26:06;;;;;;;0.80;0.47;;;20.30;51.60;;;;;;5052167;28;20033;-56
2023/01/09 01:28:32;;;;;;;0.50;0.43;;;20.30;51.50;;;;;;5083800;28;20080;-56
2023/01/09 01:30:58;;;;;;;0.90;0.43;;;20.30;51.60;;;;;;5052263;28;20544;-60
2023/01/09 01:33:24;;;;;;;0.50;0.50;;;20.30;51.60;;;;;;5081578;28;20152;-57
2023/01/09 01:35:49;;;;;;;0.75;0.40;;;20.30;51.60;;;;;;5044022;28;20047;-56
2023/01/09 01:38:15;;;;;;;0.40;0.40;;;20.30;51.60;;;;;;5051197;28;20033;-56
2023/01/09 01:40:40;;;;;;;1.58;0.68;;;20.30;51.60;;;;;;5054847;28;20485;-57
2023/01/09 01:43:10;;;;;;;0.98;0.60;;;20.30;51.60;;;;;;5050510;28;20102;-57
2023/01/09 01:45:39;;;;;;;0.73;0.63;;;20.30;51.50;;;;;;5052200;28;20091;-57
2023/01/09 01:48:16;;;;;;;0.60;0.57;;;20.30;51.50;;;;;;5050435;28;20051;-55
2023/01/09 01:50:55;;;;;;;0.50;0.43;;;20.30;51.50;;;;;;5052294;28;20060;-56
2023/01/09 01:53:23;;;;;;;1.00;0.50;;;20.30;51.50;;;;;;5050112;28;20383;-58
2023/01/09 01:56:10;;;;;;;0.93;0.60;;;20.30;51.50;;;;;;5055190;28;20077;-57
2023/01/09 01:58:49;;;;;;;0.70;0.45;;;20.30;51.50;;;;;;5061866;28;20060;-56
2023/01/09 02:01:16;;;;;;;0.70;0.50;;;20.30;51.50;;;;;;5053040;28;20061;-56
2023/01/09 02:03:42;;;;;;;1.95;0.60;;;20.20;51.40;;;;;;5052007;28;20084;-56
2023/01/09 02:06:09;;;;;;;0.47;0.43;;;20.20;51.40;;;;;;5052793;28;20041;-56
2023/01/09 02:08:35;;;;;;;0.50;0.40;;;20.20;51.40;;;;;;5035567;28;20053;-58
2023/01/09 02:11:03;;;;;;;0.43;0.22;;;20.20;51.40;;;;;;5050952;28;20051;-56
2023/01/09 02:13:30;;;;;;;0.40;0.40;;;20.20;51.40;;;;;;5053329;28;20093;-56
2023/01/09 02:16:09;;;;;;;0.65;0.50;;;20.20;51.30;;;;;;5053007;28;20131;-58
2023/01/09 02:19:06;;;;;;;0.63;0.50;;;20.20;51.30;;;;;;5052450;28;20120;-58
2023/01/09 02:21:52;;;;;;;0.50;0.43;;;20.20;51.20;;;;;;5048070;28;20183;-59
2023/01/09 02:24:35;;;;;;;1.08;0.40;;;20.20;51.30;;;;;;5050806;28;20095;-56
2023/01/09 02:27:15;;;;;;;0.52;0.30;;;20.20;51.30;;;;;;5051258;28;20095;-58
2023/01/09 02:29:52;;;;;;;0.40;0.40;;;20.20;51.20;;;;;;5052043;28;20160;-57
2023/01/09 02:32:32;;;;;;;0.52;0.50;;;20.20;51.30;;;;;;5081807;28;20069;-57
2023/01/09 02:35:16;;;;;;;0.50;0.50;;;20.10;51.20;;;;;;5052469;28;20053;-56
2023/01/09 02:38:14;;;;;;;0.63;0.40;;;20.10;51.20;;;;;;5053151;28;20045;-56
2023/01/09 02:40:56;;;;;;;0.45;0.43;;;20.10;51.10;;;;;;5030046;28;20063;-56
2023/01/09 02:43:22;;;;;;;0.75;0.38;;;20.10;51.20;;;;;;5052648;28;20045;-56
2023/01/09 02:45:47;;;;;;;0.73;0.50;;;20.10;51.20;;;;;;5051447;28;20099;-58
2023/01/09 02:48:13;;;;;;;0.85;0.50;;;20.10;51.20;;;;;;5051294;28;20041;-57
2023/01/09 02:50:54;;;;;;;0.47;0.35;;;20.10;51.20;;;;;;5051706;28;20097;-56
2023/01/09 02:53:49;;;;;;;0.65;0.40;;;20.10;51.10;;;;;;5065480;28;20060;-56
2023/01/09 02:57:12;;;;;;;1.10;0.40;;;20.10;51.00;;;;;;5050971;28;20041;-56
2023/01/09 02:59:56;;;;;;;0.50;0.30;;;20.10;51.00;;;;;;4998771;28;20049;-58
2023/01/09 03:02:33;;;;;;;0.75;0.40;;;20.10;51.10;;;;;;4996962;28;20207;-58
2023/01/09 03:05:13;;;;;;;0.75;0.40;;;20.10;51.10;;;;;;5031565;28;20084;-57
2023/01/09 03:08:23;;;;;;;0.50;0.45;;;20.10;51.10;;;;;;5050116;28;20447;-56
2023/01/09 03:11:03;;;;;;;0.95;0.50;;;20.10;51.00;;;;;;5052109;28;20605;-56
2023/01/09 03:13:32;;;;;;;1.17;0.45;;;20.10;51.10;;;;;;5059413;28;20115;-57
2023/01/09 03:16:04;;;;;;;0.52;0.40;;;20.00;51.00;;;;;;5050076;28;20908;-58
2023/01/09 03:18:31;;;;;;;0.82;0.45;;;20.00;51.00;;;;;;5057730;28;20079;-56
2023/01/09 03:20:57;;;;;;;0.50;0.40;;;20.00;50.90;;;;;;5051886;28;20053;-57
2023/01/09 03:23:22;;;;;;;0.60;0.40;;;20.00;50.90;;;;;;5051046;28;20051;-57
2023/01/09 03:25:48;;;;;;;0.47;0.35;;;20.10;50.90;;;;;;5032591;28;20135;-56
2023/01/09 03:28:25;;;;;;;0.85;0.45;;;20.00;50.90;;;;;;5049842;28;20067;-57
2023/01/09 03:30:51;;;;;;;0.40;0.40;;;20.00;50.80;;;;;;5052112;28;20052;-57
2023/01/09 03:33:16;;;;;;;1.00;0.50;;;20.00;50.90;;;;;;5051532;28;20049;-56
2023/01/09 03:35:43;;;;;;;0.57;0.47;;;20.00;50.80;;;;;;5050444;28;20048;-56
2023/01/09 03:38:09;;;;;;;0.60;0.47;;;20.00;50.80;;;;;;5050763;28;20037;-57
2023/01/09 03:40:35;;;;;;;1.05;0.50;;;20.00;50.80;;;;;;5053018;28;20051;-59
2023/01/09 03:43:00;;;;;;;0.50;0.30;;;20.00;50.70;;;;;;5050092;28;20044;-57
2023/01/09 03:45:26;;;;;;;0.45;0.40;;;20.00;50.70;;;;;;5050711;28;20040;-58
2023/01/09 03:47:52;;;;;;;0.73;0.50;;;20.00;50.70;;;;;;5051344;28;20441;-57
2023/01/09 03:50:18;;;;;;;0.73;0.40;;;20.00;50.80;;;;;;5053489;28;20049;-56
2023/01/09 03:52:44;;;;;;;0.45;0.40;;;20.00;50.70;;;;;;5050109;28;20833;-56
2023/01/09 03:55:09;;;;;;;0.40;0.40;;;20.00;50.70;;;;;;5050136;28;20094;-56
2023/01/09 03:57:35;;;;;;;0.82;0.65;;;20.00;50.70;;;;;;5048104;28;20057;-59
2023/01/09 04:00:02;;;;;;;1.67;0.80;;;20.00;50.70;;;;;;5048409;28;20049;-56
2023/01/09 04:02:28;;;;;;;0.77;0.50;;;19.90;50.60;;;;;;5079874;28;20377;-56
2023/01/09 04:04:54;;;;;;;0.40;0.40;;;19.90;50.60;;;;;;5051577;28;20088;-56
2023/01/09 04:07:19;;;;;;;0.30;0.30;;;19.90;50.50;;;;;;5050406;28;20065;-56
2023/01/09 04:09:45;;;;;;;0.47;0.47;;;19.90;50.50;;;;;;5074988;28;20055;-55
2023/01/09 04:12:11;;;;;;;1.05;0.60;;;19.90;50.50;;;;;;5048026;28;20072;-57
2023/01/09 04:14:36;;;;;;;0.40;0.40;;;19.90;50.50;;;;;;5051506;28;20148;-57
2023/01/09 04:17:02;;;;;;;1.52;0.60;;;19.90;50.50;;;;;;5081760;28;20091;-56
2023/01/09 04:19:28;;;;;;;0.40;0.40;;;19.90;50.50;;;;;;5082105;28;20056;-56
2023/01/09 04:21:53;;;;;;;0.60;0.50;;;19.90;50.50;;;;;;5048456;28;20041;-56
2023/01/09 04:24:19;;;;;;;1.52;0.65;;;19.90;50.60;;;;;;5049467;28;20140;-58
2023/01/09 04:26:45;;;;;;;1.38;0.60;;;19.90;50.50;;;;;;5048012;28;20056;-56
2023/01/09 04:29:10;;;;;;;1.67;0.60;;;19.90;50.50;;;;;;5049746;28;20047;-58
2023/01/09 04:31:36;;;;;;;1.42;0.55;;;19.90;50.50;;;;;;5081527;28;20072;-57
2023/01/09 04:34:02;;;;;;;0.60;0.60;;;19.90;50.50;;;;;;5049699;28;20041;-57
2023/01/09 04:36:27;;;;;;;0.82;0.57;;;19.90;50.50;;;;;;5049834;28;20073;-56
2023/01/09 04:38:53;;;;;;;0.52;0.52;;;19.90;50.50;;;;;;5049176;28;20123;-55
2023/01/09 04:44:03;;;;;;;1.25;0.57;;;19.90;50.50;;;;;;5049794;28;20043;-56
2023/01/09 04:46:29;;;;;;;0.88;0.63;;;19.90;50.50;;;;;;5047071;28;20033;-56
2023/01/09 04:48:54;;;;;;;0.82;0.63;;;19.90;50.40;;;;;;5049607;28;20036;-56
2023/01/09 04:51:20;;;;;;;1.70;0.80;;;19.80;50.30;;;;;;5049052;28;20040;-56
2023/01/09 04:53:46;;;;;;;0.85;0.60;;;19.90;50.40;;;;;;5046702;28;20053;-59
2023/01/09 04:56:11;;;;;;;0.85;0.60;;;19.80;50.30;;;;;;5049025;28;20048;-59
2023/01/09 04:58:37;;;;;;;1.15;0.70;;;19.80;50.30;;;;;;5063594;28;20052;-58
2023/01/09 05:01:02;;;;;;;0.60;0.60;;;19.80;50.30;;;;;;5049334;28;20044;-56
2023/01/09 05:03:28;;;;;;;1.08;0.70;;;19.80;50.30;;;;;;5047771;28;20159;-56
2023/01/09 05:05:54;;;;;;;0.85;0.68;;;19.80;50.20;;;;;;5050855;28;20045;-56
2023/01/09 05:08:19;;;;;;;0.60;0.60;;;19.80;50.30;;;;;;5048344;28;20045;-57
2023/01/09 05:10:45;;;;;;;2.85;0.75;;;19.80;50.30;;;;;;5047683;28;20227;-56
2023/01/09 05:13:11;;;;;;;1.17;0.63;;;19.80;50.20;;;;;;5049854;28;20068;-56
2023/01/09 05:15:36;;;;;;;1.85;0.60;;;19.80;50.20;;;;;;5048174;28;20049;-56
2023/01/09 05:18:02;;;;;;;0.50;0.50;;;19.80;50.90;;;;;;5050293;28;20045;-57
2023/01/09 05:20:28;;;;;;;0.80;0.60;;;19.80;50.20;;;;;;5028960;28;20368;-56
2023/01/09 05:22:53;;;;;;;1.52;0.68;;;19.80;50.20;;;;;;5047924;28;20094;-56
2023/01/09 05:25:19;;;;;;;0.75;0.65;;;19.80;50.10;;;;;;5049293;28;20668;-56
2023/01/09 05:27:45;;;;;;;0.60;0.50;;;19.80;50.10;;;;;;5048416;28;20731;-56
2023/01/09 05:30:12;;;;;;;0.80;0.57;;;19.80;50.10;;;;;;5049690;28;20258;-57
2023/01/09 05:32:38;;;;;;;1.17;0.70;;;19.80;50.10;;;;;;5048613;28;20435;-57
2023/01/09 05:35:04;;;;;;;1.15;0.60;;;19.80;50.10;;;;;;5047027;28;20037;-57
2023/01/09 05:37:29;;;;;;;0.98;0.50;;;19.70;50.00;;;;;;5049679;28;20049;-62
2023/01/09 05:39:55;;;;;;;0.82;0.60;;;19.70;50.00;;;;;;5047713;28;20087;-59
2023/01/09 05:42:21;;;;;;;0.50;0.50;;;19.70;50.00;;;;;;5048896;28;20041;-59
2023/01/09 05:44:46;;;;;;;0.57;0.57;;;19.70;50.00;;;;;;5050682;28;20362;-57
2023/01/09 05:47:12;;;;;;;1.42;0.55;;;19.70;50.10;;;;;;5047601;28;20049;-56
2023/01/09 05:49:38;;;;;;;2.10;0.90;;;19.70;50.10;;;;;;5047127;28;20040;-56
2023/01/09 05:52:04;;;;;;;1.90;0.70;;;19.70;50.10;;;;;;5048641;28;20044;-56
2023/01/09 05:54:29;;;;;;;0.98;0.70;;;19.70;50.10;;;;;;5049072;28;20045;-56
2023/01/09 05:56:56;;;;;;;1.08;0.43;;;19.70;50.20;;;;;;5078883;28;20125;-59
2023/01/09 05:59:21;;;;;;;1.65;0.60;;;19.70;50.20;;;;;;5053099;28;20087;-56
2023/01/09 06:01:47;;;;;;;0.82;0.60;;;19.70;50.30;;;;;;5049980;28;20124;-56
2023/01/09 06:04:12;;;;;;;1.80;0.77;;;19.70;50.10;;;;;;5053887;28;20044;-56
2023/01/09 06:06:39;;;;;;;3.65;0.80;;;19.70;50.10;;;;;;5053634;28;20127;-56
2023/01/09 06:09:06;;;;;;;7.22;1.00;;;19.70;50.00;;;;;;5053157;28;20107;-55
2023/01/09 06:11:34;;;;;;;3.05;0.50;;;19.70;50.00;;;;;;5051936;28;20057;-56
2023/01/09 06:14:00;;;;;;;4.13;0.70;;;19.70;50.00;;;;;;5053473;28;20154;-56
2023/01/09 06:16:26;;;;;;;1.85;0.63;;;19.70;50.00;;;;;;5052090;28;20051;-56
2023/01/09 06:18:52;;;;;;;3.72;0.63;;;19.70;50.10;;;;;;5051403;28;20041;-59
2023/01/09 06:21:17;;;;;;;1.38;0.60;;;19.70;50.10;;;;;;5052992;28;21245;-58
2023/01/09 06:23:43;;;;;;;1.38;0.50;;;19.70;50.10;;;;;;5052086;28;20049;-59
2023/01/09 06:26:09;;;;;;;1.50;0.45;;;19.70;50.20;;;;;;5050125;28;20061;-56
2023/01/09 06:28:35;;;;;;;2.55;0.60;;;19.70;50.10;;;;;;5084316;28;20060;-56
2023/01/09 06:31:00;;;;;;;1.63;0.70;;;19.70;50.10;;;;;;5051339;28;20124;-57
2023/01/09 06:33:26;;;;;;;1.15;0.50;;;19.70;50.10;;;;;;5054927;28;20040;-56
2023/01/09 06:35:52;;;;;;;0.40;0.40;;;19.60;50.00;;;;;;5055810;28;20067;-60
2023/01/09 06:38:17;;;;;;;1.85;0.63;;;19.70;50.10;;;;;;5053184;28;20052;-56
2023/01/09 06:40:43;;;;;;;4.88;0.70;;;19.60;50.00;;;;;;5053235;28;20045;-57
2023/01/09 06:43:09;;;;;;;1.58;0.80;;;19.60;50.10;;;;;;5052654;28;20052;-57
2023/01/09 06:45:35;;;;;;;1.02;0.60;;;19.60;50.10;;;;;;5053057;28;20131;-57
2023/01/09 06:48:00;;;;;;;1.50;0.52;;;19.60;50.10;;;;;;5052585;28;20072;-57
2023/01/09 06:50:26;;;;;;;1.85;0.60;;;19.60;50.10;;;;;;5055250;28;20083;-55
2023/01/09 06:52:52;;;;;;;0.52;0.50;;;19.60;50.10;;;;;;5061319;28;20048;-56
2023/01/09 06:55:17;;;;;;;1.83;0.52;;;19.60;50.10;;;;;;5055531;28;20059;-57
2023/01/09 06:57:43;;;;;;;0.73;0.65;;;19.60;50.10;;;;;;5052450;28;20605;-56
2023/01/09 07:00:09;;;;;;;1.63;0.70;;;19.60;50.10;;;;;;5053501;28;20045;-55
2023/01/09 07:02:35;;;;;;;1.08;0.60;;;19.60;50.10;;;;;;5051668;28;20048;-56
2023/01/09 07:05:01;;;;;;;0.75;0.50;;;19.50;50.10;;;;;;5054823;28;20049;-56
2023/01/09 07:07:27;;;;;;;3.63;0.60;;;19.50;50.00;;;;;;5080982;28;20049;-60
2023/01/09 07:09:52;;;;;;;1.20;0.50;;;19.60;50.10;;;;;;5051352;28;20087;-56
2023/01/09 07:12:18;;;;;;;1.75;0.60;;;19.60;50.10;;;;;;5052037;28;20064;-56
2023/01/09 07:14:44;;;;;;;0.50;0.50;;;19.50;50.00;;;;;;5051289;28;20527;-58
2023/01/09 07:17:12;;;;;;;0.80;0.50;;;19.50;50.00;;;;;;5049837;28;20051;-56
2023/01/09 07:19:38;;;;;;;1.20;0.50;;;19.50;50.00;;;;;;5052005;28;20505;-57
2023/01/09 07:22:03;;;;;;;1.10;0.60;;;19.50;50.00;;;;;;5049128;28;20041;-57
2023/01/09 07:24:29;;;;;;;0.60;0.50;;;19.50;50.00;;;;;;5050029;28;20056;-57
2023/01/09 07:26:54;;;;;;;1.10;0.50;;;19.50;50.80;;;;;;5049232;28;20052;-56
2023/01/09 07:29:20;;;;;;;2.10;0.52;;;19.50;50.20;;;;;;5050174;28;20708;-57
2023/01/09 07:31:46;;;;;;;4.95;0.52;;;19.70;50.30;;;;;;5047740;28;20075;-56
2023/01/09 07:34:12;;;;;;;0.40;0.40;;;20.10;49.70;;;;;;5049834;28;20060;-59
2023/01/09 07:36:38;;;;;;;0.60;0.57;;;20.70;48.60;;;;;;5079067;28;20057;-57
2023/01/09 07:39:03;;;;;;;2.22;0.50;;;21.30;47.30;;;;;;5050006;28;20044;-56
2023/01/09 07:41:32;;;;;;;2.42;0.50;;;22.00;46.10;;;;;;5079700;28;20056;-57
2023/01/09 07:43:58;;;;;;;2.08;0.40;;;22.40;45.20;;;;;;5050320;28;20451;-56
2023/01/09 07:46:24;;;;;;;1.27;0.40;;;22.50;44.90;;;;;;5047358;28;20059;-59
2023/01/09 07:48:49;;;;;;;1.02;0.40;;;22.40;44.90;;;;;;5079028;28;20167;-58
2023/01/09 07:51:15;;;;;;;2.40;0.70;;;22.30;45.10;;;;;;5050398;28;20075;-58
2023/01/09 07:53:41;;;;;;;1.08;0.50;;;22.30;45.20;;;;;;5047498;28;20392;-59
2023/01/09 07:56:06;;;;;;;1.17;0.73;;;22.30;45.20;;;;;;5050581;28;20055;-57
2023/01/09 07:58:32;;;;;;;1.00;0.60;;;22.20;45.20;;;;;;5050377;28;20037;-56
2023/01/09 08:00:58;;;;;;;1.15;0.60;;;22.20;45.40;;;;;;5048326;28;20056;-58
2023/01/09 08:03:25;;;;;;;4.78;1.05;;;22.10;45.60;;;;;;5048208;28;20405;-55
2023/01/09 08:05:51;;;;;;;1.23;0.55;;;21.90;45.90;;;;;;5048418;28;20044;-57
2023/01/09 08:08:17;;;;;;;0.85;0.75;;;21.80;46.10;;;;;;5046751;28;20044;-57
2023/01/09 08:10:43;;;;;;;3.22;0.60;;;21.80;46.30;;;;;;5044171;28;20040;-56
2023/01/09 08:13:08;;;;;;;2.33;0.68;;;21.80;46.60;;;;;;5045191;28;20131;-56
2023/01/09 08:15:34;;;;;;;2.35;0.47;;;21.70;46.70;;;;;;5047500;28;20056;-58
2023/01/09 08:18:00;;;;;;;2.53;0.73;;;21.70;46.90;;;;;;5045199;28;20036;-57
2023/01/09 08:20:26;;;;;;;1.45;0.63;;;21.70;47.00;;;;;;5045225;28;20070;-56
2023/01/09 08:22:53;;;;;;;2.20;0.73;;;21.70;47.10;;;;;;5047167;28;20493;-58
2023/01/09 08:25:19;;;;;;;4.32;1.08;;;21.70;47.10;;;;;;5044754;28;20051;-57
2023/01/09 08:27:44;;;;;;;0.93;0.50;;;21.70;47.10;;;;;;5058999;28;20089;-59
2023/01/09 08:30:11;;;;;;;2.35;0.60;;;21.70;47.10;;;;;;5047824;28;20172;-57
2023/01/09 08:32:37;;;;;;;0.90;0.40;;;21.70;47.10;;;;;;5044316;28;20415;-57
2023/01/09 08:35:03;;;;;;;1.90;0.63;;;21.70;47.10;;;;;;5045329;28;20047;-57
2023/01/09 08:37:29;;;;;;;1.00;0.40;;;21.70;47.10;;;;;;5076162;28;20095;-56
2023/01/09 08:39:55;;;;;;;3.92;0.63;;;21.80;47.20;;;;;;5047957;28;20419;-58
2023/01/09 08:47:50;;;;;;;1.17;0.45;;;21.70;47.30;;;;;;5047219;28;20045;-56
2023/01/09 08:50:17;;;;;;;1.02;0.60;;;21.70;47.30;;;;;;5047368;28;20051;-57
2023/01/09 08:52:53;;;;;;;0.60;0.40;;;21.70;47.50;;;;;;5080068;28;20040;-56
2023/01/09 08:55:21;;;;;;;0.80;0.47;;;21.80;47.50;;;;;;5047004;28;20477;-57
2023/01/09 08:57:52;;;;;;;1.63;0.57;;;21.80;47.50;;;;;;5047807;28;20055;-57
2023/01/09 09:00:19;;;;;;;2.13;0.50;;;21.80;47.50;;;;;;5046827;28;20033;-55
2023/01/09 09:02:49;;;;;;;2.22;0.47;;;21.80;47.50;;;;;;5044323;28;20053;-56
2023/01/09 09:05:14;;;;;;;2.10;0.70;;;21.80;47.50;;;;;;5044740;28;20051;-56
2023/01/09 09:07:41;;;;;;;0.55;0.35;;;21.80;47.40;;;;;;5044620;28;20052;-58
2023/01/09 09:10:07;;;;;;;1.33;0.60;;;21.90;47.50;;;;;;5047951;28;20485;-56
2023/01/09 09:12:33;;;;;;;3.65;0.70;;;21.80;47.40;;;;;;5046573;28;20489;-58
2023/01/09 09:15:11;;;;;;;1.40;0.40;;;21.90;47.50;;;;;;5047401;28;20045;-55
2023/01/09 09:17:37;;;;;;;1.23;0.55;;;21.90;47.50;;;;;;5047965;28;20079;-56
2023/01/09 09:20:03;;;;;;;2.55;0.65;;;21.90;47.50;;;;;;5053341;28;20064;-55
2023/01/09 09:22:29;;;;;;;1.05;0.60;;;21.80;47.30;;;;;;5047922;28;20045;-56
2023/01/09 09:24:55;;;;;;;0.80;0.80;;;21.90;47.30;;;;;;5046722;28;20519;-57
2023/01/09 09:27:21;;;;;;;3.13;0.63;;;21.90;47.40;;;;;;5045624;28;20530;-56
2023/01/09 09:29:46;;;;;;;2.13;0.70;;;21.90;48.10;;;;;;5046099;28;20076;-59
2023/01/09 09:32:12;;;;;;;1.85;0.60;;;21.90;47.50;;;;;;5048446;28;20124;-58
2023/01/09 09:34:38;;;;;;;1.10;0.50;;;21.90;47.60;;;;;;5048273;28;20050;-58
2023/01/09 09:37:03;;;;;;;2.75;0.60;;;21.90;47.70;;;;;;5050929;28;20044;-56
2023/01/09 09:39:29;;;;;;;2.00;0.50;;;21.90;47.80;;;;;;5048501;28;20040;-57
2023/01/09 09:45:24;;;;;;;1.70;0.73;;;21.90;47.90;;;;;;5051488;28;20055;-56
2023/01/09 09:47:56;;;;;;;1.40;0.50;;;21.90;47.90;;;;;;5044983;28;20481;-55
2023/01/09 09:50:27;;;;;;;1.20;0.60;;;21.80;48.00;;;;;;5051956;28;20068;-55
2023/01/09 09:53:23;;;;;;;2.45;0.50;;;21.90;48.00;;;;;;5052097;28;20032;-56
2023/01/09 09:55:49;;;;;;;0.93;0.50;;;21.90;48.20;;;;;;5040867;28;20045;-57
2023/01/09 09:58:15;;;;;;;0.95;0.63;;;21.90;48.10;;;;;;5053114;28;20033;-56
2023/01/09 10:00:41;;;;;;;3.10;0.77;;;21.90;48.20;;;;;;5052797;28;20110;-56
2023/01/09 10:03:20;;;;;;;3.05;0.77;;;21.90;48.20;;;;;;5052146;28;20098;-56
2023/01/09 10:05:49;;;;;;;1.40;0.60;;;21.90;48.40;;;;;;5054685;28;20035;-55
2023/01/09 10:08:33;;;;;;;1.40;0.30;;;21.90;48.40;;;;;;5052121;28;20128;-59
2023/01/09 10:10:58;;;;;;;1.90;0.70;;;22.00;48.40;;;;;;5052008;28;20524;-58
2023/01/09 10:16:30;;;;;;;1.23;0.43;;;21.90;48.30;;;;;;5053038;28;20055;-56
2023/01/09 10:19:20;;;;;;;1.25;0.50;;;22.00;48.40;;;;;;5083329;27;20080;-57
2023/01/09 10:22:07;;;;;;;1.20;0.40;;;21.90;48.40;;;;;;5052469;28;20057;-57
2023/01/09 10:24:53;;;;;;;2.88;0.93;;;21.90;48.40;;;;;;5068074;28;20044;-56
2023/01/09 10:27:39;;;;;;;2.45;1.10;;;21.90;48.40;;;;;;5040278;28;20084;-57
2023/01/09 10:30:28;;;;;;;4.35;1.45;;;21.80;48.30;;;;;;5041243;28;20048;-56
2023/01/09 10:33:12;;;;;;;9.68;1.65;;;21.90;48.40;;;;;;5051847;28;20048;-56
2023/01/09 10:35:55;;;;;;;6.55;1.40;;;21.90;48.40;;;;;;5053316;28;20044;-56
2023/01/09 10:38:34;;;;;;;6.10;1.35;;;21.90;48.40;;;;;;5081895;28;20041;-56
2023/01/09 10:41:05;;;;;;;8.38;2.00;;;21.80;48.30;;;;;;5041945;28;20080;-57
2023/01/09 10:43:42;;;;;;;6.45;1.65;;;21.70;48.40;;;;;;5082800;28;20142;-56
2023/01/09 10:46:21;;;;;;;6.43;1.40;;;21.60;48.60;;;;;;5052608;28;20094;-58
2023/01/09 10:48:55;;;;;;;6.30;1.20;;;21.40;49.00;;;;;;5051329;28;20060;-56
2023/01/09 10:51:26;;;;;;;4.18;1.20;;;21.30;49.20;;;;;;5048911;28;20465;-56
2023/01/09 10:53:54;;;;;;;5.20;1.27;;;21.20;49.40;;;;;;5084054;28;20049;-57
2023/01/09 10:56:29;;;;;;;4.07;1.20;;;21.00;49.60;;;;;;5050155;28;20063;-57
2023/01/09 10:58:55;;;;;;;4.38;1.35;;;21.00;49.70;;;;;;5052865;28;20090;-56
2023/01/09 11:01:27;;;;;;;2.38;1.23;;;20.90;49.70;;;;;;5051898;28;20045;-56
2023/01/09 11:03:53;;;;;;;3.55;1.30;;;20.90;49.70;;;;;;5051745;28;20041;-58
2023/01/09 11:06:24;;;;;;;4.93;1.30;;;20.90;49.70;;;;;;5083491;28;20087;-58
2023/01/09 11:08:54;;;;;;;3.42;1.10;;;20.90;49.80;;;;;;5049995;28;20412;-57
2023/01/09 11:11:39;;;;;;;2.25;1.05;;;20.90;49.60;;;;;;5052937;28;20083;-57
2023/01/09 11:14:17;;;;;;;2.65;0.98;;;20.90;49.60;;;;;;5053445;28;20060;-57
2023/01/09 11:16:52;;;;;;;3.30;1.00;;;20.80;49.60;;;;;;5050734;28;20078;-58
2023/01/09 11:19:18;;;;;;;2.30;1.17;;;20.80;49.80;;;;;;5050414;28;20045;-57
2023/01/09 11:21:44;;;;;;;5.50;0.88;;;20.80;49.80;;;;;;5049285;28;20036;-56
2023/01/09 11:24:30;;;;;;;2.17;1.10;;;20.80;49.80;;;;;;5049466;28;20130;-56
2023/01/09 11:27:23;;;;;;;2.42;0.90;;;20.80;49.70;;;;;;5050686;28;20131;-56
2023/01/09 11:30:19;;;;;;;2.88;1.10;;;20.70;49.90;;;;;;5051028;28;20042;-57
2023/01/09 11:32:46;;;;;;;3.35;0.90;;;20.70;50.10;;;;;;5081909;28;20052;-56
2023/01/09 11:35:22;;;;;;;3.42;0.98;;;20.70;50.00;;;;;;5052426;28;20048;-58
2023/01/09 11:37:56;;;;;;;2.10;0.82;;;20.80;49.90;;;;;;5049834;28;20048;-55
2023/01/09 11:40:22;;;;;;;2.75;1.05;;;20.70;50.00;;;;;;5052674;28;20052;-57
2023/01/09 11:43:11;;;;;;;1.70;1.00;;;20.60;50.20;;;;;;5049687;28;20044;-56
2023/01/09 11:45:45;;;;;;;1.83;0.90;;;20.50;50.50;;;;;;5067376;28;20492;-56
2023/01/09 11:48:38;;;;;;;1.88;1.20;;;20.50;50.70;;;;;;5050514;28;20037;-59
2023/01/09 11:51:19;;;;;;;2.63;1.08;;;20.50;50.70;;;;;;5083016;28;20106;-56
2023/01/09 11:54:09;;;;;;;3.65;1.30;;;20.50;50.50;;;;;;5049340;28;20148;-56
2023/01/09 11:56:36;;;;;;;4.40;1.10;;;20.50;50.90;;;;;;5048369;28;20052;-56
2023/01/09 11:59:09;;;;;;;3.35;1.02;;;20.60;51.00;;;;;;5082448;28;20045;-56
2023/01/09 12:02:00;;;;;;;2.33;1.00;;;21.20;50.20;;;;;;5050540;28;20086;-56
2023/01/09 12:04:39;;;;;;;8.27;1.13;;;21.90;48.60;;;;;;5049502;28;20537;-57
2023/01/09 12:07:39;;;;;;;4.47;1.17;;;22.60;47.10;;;;;;5049015;28;21140;-56
2023/01/09 12:10:42;;;;;;;6.03;1.02;;;23.10;46.10;;;;;;5049680;28;20071;-58
2023/01/09 12:13:23;;;;;;;4.45;1.05;;;23.40;45.40;;;;;;5050025;28;20163;-55
2023/01/09 12:16:14;;;;;;;6.28;1.25;;;23.30;45.20;;;;;;5050009;28;20044;-57
2023/01/09 12:18:58;;;;;;;3.95;0.90;;;23.10;45.40;;;;;;5051131;28;20041;-58
2023/01/09 12:21:38;;;;;;;7.15;2.67;;;22.90;45.80;;;;;;5046199;28;20135;-56
2023/01/09 12:24:32;;;;;;;23.83;10.82;;;22.80;46.10;;;;;;5048335;28;20465;-56
2023/01/09 12:27:32;;;;;;;30.67;13.18;;;22.70;46.40;;;;;;5046135;28;20649;-56
2023/01/09 12:30:09;;;;;;;37.53;17.23;;;22.50;46.60;;;;;;5048117;28;20127;-57
2023/01/09 12:32:41;;;;;;;32.92;16.92;;;22.40;47.40;;;;;;5047052;28;20053;-58
2023/01/09 12:35:19;;;;;;;41.30;18.45;;;22.30;47.80;;;;;;5039415;28;20077;-59
2023/01/09 12:37:44;;;;;;;46.20;17.23;;;22.20;48.10;;;;;;5047564;28;20460;-56
2023/01/09 12:40:22;;;;;;;47.83;17.40;;;22.20;48.40;;;;;;5047201;28;20052;-57
2023/01/09 12:43:05;;;;;;;41.83;16.70;;;22.10;48.40;;;;;;5046572;28;20677;-57
2023/01/09 12:45:46;;;;;;;45.95;17.40;;;22.10;48.80;;;;;;5050280;28;20041;-56
2023/01/09 12:48:20;;;;;;;;;;;22.10;49.00;;;;;;5050986;28;20045;-56
2023/01/09 12:51:06;;;;;;;44.53;17.92;;;22.00;49.30;;;;;;5048129;28;20330;-57
2023/01/09 12:54:03;;;;;;;47.85;17.35;;;22.00;49.40;;;;;;5049765;28;20093;-57
2023/01/09 12:56:37;;;;;;;44.75;16.92;;;22.00;49.60;;;;;;5040381;28;20060;-57
2023/01/09 12:59:31;;;;;;;43.13;16.73;;;22.00;49.70;;;;;;5040488;28;20060;-58
2023/01/09 13:02:32;;;;;;;44.15;15.02;;;22.00;49.70;;;;;;5051287;28;20619;-58
2023/01/09 13:05:14;;;;;;;40.53;14.85;;;22.00;49.70;;;;;;5068208;28;20576;-56
2023/01/09 13:08:00;;;;;;;40.10;14.88;;;22.00;49.60;;;;;;5050411;28;20032;-57
2023/01/09 13:10:32;;;;;;;38.10;13.75;;;22.00;49.50;;;;;;5052007;28;20041;-56
2023/01/09 13:13:05;;;;;;;37.80;12.43;;;22.00;49.40;;;;;;5054715;28;20157;-59
2023/01/09 13:15:34;;;;;;;29.50;11.13;;;22.00;49.30;;;;;;5055782;28;20044;-55
2023/01/09 13:18:21;;;;;;;31.92;11.88;;;22.00;49.10;;;;;;5055205;28;20052;-56
2023/01/09 13:20:53;;;;;;;27.85;10.80;;;22.00;48.90;;;;;;5052191;28;20076;-57